sensor_id;sensor_type;location;lat;lon;timestamp;pressure;altitude;pressure_sealevel;temperature;humidity
55315;BME280;41619;42.816;23.226;2023-06-22T00:01:49;95930.94;;;16.20;73.69
55315;BME280;41619;42.816;23.226;2023-06-22T00:04:14;95930.56;;;16.18;73.68
55315;BME280;41619;42.816;23.226;2023-06-22T00:06:40;95917.09;;;16.13;73.89
55315;BME280;41619;42.816;23.226;2023-06-22T00:09:05;95913.53;;;16.09;73.95
55315;BME280;41619;42.816;23.226;2023-06-22T00:11:32;95920.25;;;16.08;73.85
55315;BME280;41619;42.816;23.226;2023-06-22T00:13:58;95927.72;;;16.00;73.70
55315;BME280;41619;42.816;23.226;2023-06-22T00:16:24;95927.31;;;15.98;74.09
55315;BME280;41619;42.816;23.226;2023-06-22T00:18:49;95918.59;;;15.93;74.21
55315;BME280;41619;42.816;23.226;2023-06-22T00:21:15;95913.47;;;15.88;74.19
55315;BME280;41619;42.816;23.226;2023-06-22T00:23:40;95909.09;;;15.80;74.30
55315;BME280;41619;42.816;23.226;2023-06-22T00:26:06;95911.44;;;15.74;74.16
55315;BME280;41619;42.816;23.226;2023-06-22T00:28:32;95915.38;;;15.69;74.54
55315;BME280;41619;42.816;23.226;2023-06-22T00:30:57;95916.13;;;15.66;74.67
55315;BME280;41619;42.816;23.226;2023-06-22T00:33:22;95916.47;;;15.61;74.43
55315;BME280;41619;42.816;23.226;2023-06-22T00:35:48;95915.66;;;15.57;74.95
55315;BME280;41619;42.816;23.226;2023-06-22T00:38:13;95911.31;;;15.53;74.82
55315;BME280;41619;42.816;23.226;2023-06-22T00:40:39;95910.13;;;15.54;74.93
55315;BME280;41619;42.816;23.226;2023-06-22T00:43:05;95913.28;;;15.56;75.05
55315;BME280;41619;42.816;23.226;2023-06-22T00:45:30;95909.34;;;15.57;75.07
55315;BME280;41619;42.816;23.226;2023-06-22T00:47:57;95908.94;;;15.55;75.08
55315;BME280;41619;42.816;23.226;2023-06-22T00:50:25;95910.13;;;15.54;75.01
55315;BME280;41619;42.816;23.226;2023-06-22T00:52:52;95916.03;;;15.56;75.24
55315;BME280;41619;42.816;23.226;2023-06-22T00:55:20;95920.38;;;15.57;75.01
55315;BME280;41619;42.816;23.226;2023-06-22T00:57:47;95930.22;;;15.58;75.03
55315;BME280;41619;42.816;23.226;2023-06-22T01:00:13;95916.44;;;15.58;74.99
55315;BME280;41619;42.816;23.226;2023-06-22T01:02:41;95930.22;;;15.58;74.85
55315;BME280;41619;42.816;23.226;2023-06-22T01:05:06;95921.16;;;15.54;74.82
55315;BME280;41619;42.816;23.226;2023-06-22T01:10:23;95911.69;;;15.51;75.07
55315;BME280;41619;42.816;23.226;2023-06-22T01:12:53;95921.94;;;15.51;75.03
55315;BME280;41619;42.816;23.226;2023-06-22T01:15:28;95920.75;;;15.52;75.22
55315;BME280;41619;42.816;23.226;2023-06-22T01:17:56;95921.53;;;15.49;75.11
55315;BME280;41619;42.816;23.226;2023-06-22T01:20:24;95924.69;;;15.47;75.07
55315;BME280;41619;42.816;23.226;2023-06-22T01:25:42;95928.56;;;15.39;75.39
55315;BME280;41619;42.816;23.226;2023-06-22T01:28:32;95941.94;;;15.37;75.43
55315;BME280;41619;42.816;23.226;2023-06-22T01:31:00;95934.44;;;15.37;75.41
55315;BME280;41619;42.816;23.226;2023-06-22T01:33:35;95936.41;;;15.33;75.38
55315;BME280;41619;42.816;23.226;2023-06-22T01:36:03;95939.16;;;15.30;75.64
55315;BME280;41619;42.816;23.226;2023-06-22T01:38:29;95936.38;;;15.26;75.78
55315;BME280;41619;42.816;23.226;2023-06-22T01:40:56;95932.03;;;15.25;75.81
55315;BME280;41619;42.816;23.226;2023-06-22T01:43:24;95934.00;;;15.25;75.92
55315;BME280;41619;42.816;23.226;2023-06-22T01:45:50;95945.03;;;15.28;75.87
55315;BME280;41619;42.816;23.226;2023-06-22T01:48:17;95944.25;;;15.28;75.84
55315;BME280;41619;42.816;23.226;2023-06-22T01:50:42;95941.44;;;15.24;75.67
55315;BME280;41619;42.816;23.226;2023-06-22T01:53:08;95952.84;;;15.19;75.67
55315;BME280;41619;42.816;23.226;2023-06-22T01:55:33;95961.84;;;15.12;75.78
55315;BME280;41619;42.816;23.226;2023-06-22T01:57:59;95960.66;;;15.10;75.67
55315;BME280;41619;42.816;23.226;2023-06-22T02:00:28;95962.22;;;15.07;75.77
55315;BME280;41619;42.816;23.226;2023-06-22T02:03:09;95960.59;;;15.03;75.83
55315;BME280;41619;42.816;23.226;2023-06-22T02:05:44;95962.53;;;14.99;75.94
55315;BME280;41619;42.816;23.226;2023-06-22T02:08:23;95966.84;;;14.96;75.76
55315;BME280;41619;42.816;23.226;2023-06-22T02:10:50;95966.03;;;14.92;75.95
55315;BME280;41619;42.816;23.226;2023-06-22T02:13:17;95957.72;;;14.89;76.06
55315;BME280;41619;42.816;23.226;2023-06-22T02:15:42;95955.78;;;14.89;76.20
55315;BME280;41619;42.816;23.226;2023-06-22T02:18:08;95953.75;;;14.86;76.05
55315;BME280;41619;42.816;23.226;2023-06-22T02:20:38;95959.25;;;14.86;76.26
55315;BME280;41619;42.816;23.226;2023-06-22T02:23:03;95957.69;;;14.85;76.35
55315;BME280;41619;42.816;23.226;2023-06-22T02:25:29;95949.78;;;14.83;76.61
55315;BME280;41619;42.816;23.226;2023-06-22T02:27:55;95948.22;;;14.82;76.21
55315;BME280;41619;42.816;23.226;2023-06-22T02:30:20;95951.34;;;14.81;76.58
55315;BME280;41619;42.816;23.226;2023-06-22T02:32:45;95953.69;;;14.79;76.52
55315;BME280;41619;42.816;23.226;2023-06-22T02:35:11;95956.47;;;14.79;76.61
55315;BME280;41619;42.816;23.226;2023-06-22T02:37:37;95955.25;;;14.76;76.66
55315;BME280;41619;42.816;23.226;2023-06-22T02:40:10;95948.53;;;14.74;76.58
55315;BME280;41619;42.816;23.226;2023-06-22T02:42:35;95941.84;;;14.71;76.84
55315;BME280;41619;42.816;23.226;2023-06-22T02:45:01;95956.00;;;14.70;76.75
55315;BME280;41619;42.816;23.226;2023-06-22T02:47:27;95953.59;;;14.68;76.87
55315;BME280;41619;42.816;23.226;2023-06-22T02:49:52;95955.94;;;14.66;76.76
55315;BME280;41619;42.816;23.226;2023-06-22T02:52:17;95949.22;;;14.64;76.64
55315;BME280;41619;42.816;23.226;2023-06-22T02:54:43;95957.84;;;14.59;76.52
55315;BME280;41619;42.816;23.226;2023-06-22T02:57:10;95958.59;;;14.56;76.66
55315;BME280;41619;42.816;23.226;2023-06-22T02:59:41;95953.44;;;14.50;76.84
55315;BME280;41619;42.816;23.226;2023-06-22T03:02:08;95953.44;;;14.50;76.97
55315;BME280;41619;42.816;23.226;2023-06-22T03:04:34;95950.69;;;14.50;76.78
55315;BME280;41619;42.816;23.226;2023-06-22T03:07:00;95956.19;;;14.50;76.89
55315;BME280;41619;42.816;23.226;2023-06-22T03:09:27;95969.16;;;14.50;77.03
55315;BME280;41619;42.816;23.226;2023-06-22T03:11:55;95973.06;;;14.49;76.95
55315;BME280;41619;42.816;23.226;2023-06-22T03:14:21;95979.75;;;14.48;76.92
55315;BME280;41619;42.816;23.226;2023-06-22T03:16:46;95975.81;;;14.49;76.86
55315;BME280;41619;42.816;23.226;2023-06-22T03:19:12;95982.50;;;14.48;76.73
55315;BME280;41619;42.816;23.226;2023-06-22T03:21:39;95983.69;;;14.47;76.69
55315;BME280;41619;42.816;23.226;2023-06-22T03:24:05;95975.00;;;14.45;76.80
55315;BME280;41619;42.816;23.226;2023-06-22T03:26:31;95981.69;;;14.44;77.19
55315;BME280;41619;42.816;23.226;2023-06-22T03:28:57;95986.03;;;14.45;76.88
55315;BME280;41619;42.816;23.226;2023-06-22T03:31:23;95988.41;;;14.46;77.09
55315;BME280;41619;42.816;23.226;2023-06-22T03:33:49;95989.97;;;14.47;77.11
55315;BME280;41619;42.816;23.226;2023-06-22T03:36:15;95990.78;;;14.48;77.23
55315;BME280;41619;42.816;23.226;2023-06-22T03:38:45;95992.34;;;14.49;77.18
55315;BME280;41619;42.816;23.226;2023-06-22T03:41:11;95999.44;;;14.50;77.15
55315;BME280;41619;42.816;23.226;2023-06-22T03:43:37;96002.25;;;14.53;77.19
55315;BME280;41619;42.816;23.226;2023-06-22T03:46:02;96002.25;;;14.53;77.22
55315;BME280;41619;42.816;23.226;2023-06-22T03:48:27;96000.28;;;14.54;77.16
55315;BME280;41619;42.816;23.226;2023-06-22T03:50:53;96001.50;;;14.57;77.47
55315;BME280;41619;42.816;23.226;2023-06-22T03:53:18;95992.84;;;14.58;77.50
55315;BME280;41619;42.816;23.226;2023-06-22T03:55:52;95998.00;;;14.60;77.39
55315;BME280;41619;42.816;23.226;2023-06-22T03:58:19;95997.22;;;14.63;77.27
55315;BME280;41619;42.816;23.226;2023-06-22T04:00:49;95994.50;;;14.66;77.38
55315;BME280;41619;42.816;23.226;2023-06-22T04:03:15;95988.25;;;14.69;77.42
55315;BME280;41619;42.816;23.226;2023-06-22T04:05:41;95987.13;;;14.74;77.52
55315;BME280;41619;42.816;23.226;2023-06-22T04:08:07;95987.94;;;14.78;77.15
55315;BME280;41619;42.816;23.226;2023-06-22T04:10:33;95992.31;;;14.82;77.13
55315;BME280;41619;42.816;23.226;2023-06-22T04:12:59;95979.78;;;14.89;76.76
55315;BME280;41619;42.816;23.226;2023-06-22T04:15:25;95982.97;;;14.94;77.35
55315;BME280;41619;42.816;23.226;2023-06-22T04:17:50;95971.97;;;14.98;77.18
55315;BME280;41619;42.816;23.226;2023-06-22T04:20:16;95977.91;;;15.03;77.10
55315;BME280;41619;42.816;23.226;2023-06-22T04:22:41;95972.47;;;15.10;76.88
55315;BME280;41619;42.816;23.226;2023-06-22T04:25:07;95980.00;;;15.17;76.85
55315;BME280;41619;42.816;23.226;2023-06-22T04:27:35;95980.06;;;15.24;76.78
55315;BME280;41619;42.816;23.226;2023-06-22T04:30:06;95993.13;;;15.31;76.77
55315;BME280;41619;42.816;23.226;2023-06-22T18:04:17;95871.59;;;21.27;75.82
55315;BME280;41619;42.816;23.226;2023-06-22T18:06:45;95870.44;;;21.25;76.16
55315;BME280;41619;42.816;23.226;2023-06-22T18:09:14;95870.84;;;21.23;76.69
55315;BME280;41619;42.816;23.226;2023-06-22T18:11:43;95881.63;;;21.21;77.22
55315;BME280;41619;42.816;23.226;2023-06-22T18:14:10;95880.84;;;21.21;77.65
55315;BME280;41619;42.816;23.226;2023-06-22T18:16:36;95877.28;;;21.20;77.83
55315;BME280;41619;42.816;23.226;2023-06-22T18:19:02;95878.44;;;21.19;78.07
55315;BME280;41619;42.816;23.226;2023-06-22T18:21:28;95875.31;;;21.17;78.20
55315;BME280;41619;42.816;23.226;2023-06-22T18:23:55;95879.72;;;21.14;78.32
55315;BME280;41619;42.816;23.226;2023-06-22T18:26:22;95886.94;;;21.12;78.48
55315;BME280;41619;42.816;23.226;2023-06-22T18:28:50;95877.44;;;21.09;78.65
55315;BME280;41619;42.816;23.226;2023-06-22T18:31:18;95881.84;;;21.07;78.90
55315;BME280;41619;42.816;23.226;2023-06-22T18:33:43;95885.06;;;21.05;79.07
55315;BME280;41619;42.816;23.226;2023-06-22T18:36:09;95887.13;;;21.01;79.04
55315;BME280;41619;42.816;23.226;2023-06-22T18:38:36;95883.59;;;20.97;79.34
55315;BME280;41619;42.816;23.226;2023-06-22T18:41:05;95895.94;;;20.96;79.48
55315;BME280;41619;42.816;23.226;2023-06-22T18:43:37;95898.34;;;20.94;79.79
55315;BME280;41619;42.816;23.226;2023-06-22T18:46:28;95889.28;;;20.90;79.86
55315;BME280;41619;42.816;23.226;2023-06-22T18:48:59;95897.69;;;20.86;79.84
55315;BME280;41619;42.816;23.226;2023-06-22T18:51:24;95906.81;;;20.87;80.03
55315;BME280;41619;42.816;23.226;2023-06-22T18:54:02;95914.38;;;20.86;80.25
55315;BME280;41619;42.816;23.226;2023-06-22T18:56:28;95916.75;;;20.88;80.25
55315;BME280;41619;42.816;23.226;2023-06-22T18:58:56;95916.75;;;20.88;80.15
55315;BME280;41619;42.816;23.226;2023-06-22T19:01:23;95919.53;;;20.88;80.43
55315;BME280;41619;42.816;23.226;2023-06-22T19:03:51;95917.94;;;20.87;80.45
55315;BME280;41619;42.816;23.226;2023-06-22T19:06:54;95917.16;;;20.86;80.65
55315;BME280;41619;42.816;23.226;2023-06-22T19:09:19;95926.72;;;20.85;80.37
55315;BME280;41619;42.816;23.226;2023-06-22T19:11:46;95924.38;;;20.84;80.49
55315;BME280;41619;42.816;23.226;2023-06-22T19:14:19;95920.00;;;20.83;80.65
55315;BME280;41619;42.816;23.226;2023-06-22T19:16:46;95918.03;;;20.80;80.63
55315;BME280;41619;42.816;23.226;2023-06-22T19:19:13;95924.03;;;20.78;80.69
55315;BME280;41619;42.816;23.226;2023-06-22T19:21:41;95926.88;;;20.75;80.43
55315;BME280;41619;42.816;23.226;2023-06-22T19:24:07;95931.28;;;20.72;80.74
55315;BME280;41619;42.816;23.226;2023-06-22T19:26:33;95933.34;;;20.68;80.79
55315;BME280;41619;42.816;23.226;2023-06-22T19:28:58;95933.06;;;20.59;80.43
55315;BME280;41619;42.816;23.226;2023-06-22T19:31:25;95936.78;;;20.49;80.35
55315;BME280;41619;42.816;23.226;2023-06-22T19:34:05;95932.88;;;20.43;80.72
55315;BME280;41619;42.816;23.226;2023-06-22T19:36:34;95920.63;;;20.37;80.78
55315;BME280;41619;42.816;23.226;2023-06-22T19:39:00;95933.41;;;20.31;80.85
55315;BME280;41619;42.816;23.226;2023-06-22T19:41:25;95932.28;;;20.24;80.93
55315;BME280;41619;42.816;23.226;2023-06-22T19:43:51;95920.81;;;20.22;81.00
55315;BME280;41619;42.816;23.226;2023-06-22T19:46:17;95914.94;;;20.17;81.19
55315;BME280;41619;42.816;23.226;2023-06-22T19:48:44;95920.94;;;20.12;81.10
55315;BME280;41619;42.816;23.226;2023-06-22T19:51:11;95926.16;;;20.06;81.24
55315;BME280;41619;42.816;23.226;2023-06-22T19:53:40;95922.28;;;20.00;81.35
55315;BME280;41619;42.816;23.226;2023-06-22T19:56:06;95928.72;;;19.93;81.44
55315;BME280;41619;42.816;23.226;2023-06-22T19:58:32;95922.78;;;19.91;81.54
55315;BME280;41619;42.816;23.226;2023-06-22T20:01:00;95922.44;;;19.86;81.72
55315;BME280;41619;42.816;23.226;2023-06-22T20:03:30;95920.13;;;19.81;82.00
55315;BME280;41619;42.816;23.226;2023-06-22T20:06:10;95911.84;;;19.77;81.98
55315;BME280;41619;42.816;23.226;2023-06-22T20:08:47;95911.47;;;19.75;81.83
55315;BME280;41619;42.816;23.226;2023-06-22T20:11:13;95912.69;;;19.71;82.17
55315;BME280;41619;42.816;23.226;2023-06-22T20:13:46;95917.91;;;19.65;82.19
55315;BME280;41619;42.816;23.226;2023-06-22T20:16:12;95910.44;;;19.58;82.27
55315;BME280;41619;42.816;23.226;2023-06-22T20:18:38;95906.91;;;19.51;82.29
55315;BME280;41619;42.816;23.226;2023-06-22T20:21:09;95902.59;;;19.46;82.57
55315;BME280;41619;42.816;23.226;2023-06-22T20:23:35;95907.00;;;19.44;82.69
55315;BME280;41619;42.816;23.226;2023-06-22T20:26:00;95910.19;;;19.42;82.37
55315;BME280;41619;42.816;23.226;2023-06-22T20:28:26;95909.41;;;19.42;82.72
55315;BME280;41619;42.816;23.226;2023-06-22T20:33:27;95902.72;;;19.35;82.54
55315;BME280;41619;42.816;23.226;2023-06-22T20:35:52;95906.28;;;19.32;82.46
55315;BME280;41619;42.816;23.226;2023-06-22T20:38:18;95903.16;;;19.30;82.34
55315;BME280;41619;42.816;23.226;2023-06-22T20:40:43;95896.06;;;19.26;82.46
55315;BME280;41619;42.816;23.226;2023-06-22T20:43:13;95894.91;;;19.23;82.02
55315;BME280;41619;42.816;23.226;2023-06-22T20:45:38;95892.16;;;19.20;82.14
55315;BME280;41619;42.816;23.226;2023-06-22T20:48:04;95889.44;;;19.13;81.89
55315;BME280;41619;42.816;23.226;2023-06-22T20:50:30;95893.84;;;19.06;81.99
55315;BME280;41619;42.816;23.226;2023-06-22T20:52:59;95898.25;;;19.04;81.82
55315;BME280;41619;42.816;23.226;2023-06-22T20:55:25;95891.53;;;19.01;81.84
55315;BME280;41619;42.816;23.226;2023-06-22T20:57:51;95895.13;;;18.98;81.88
55315;BME280;41619;42.816;23.226;2023-06-22T21:00:17;95889.59;;;18.95;82.02
55315;BME280;41619;42.816;23.226;2023-06-22T21:02:42;95893.97;;;18.92;82.05
55315;BME280;41619;42.816;23.226;2023-06-22T21:05:12;95896.78;;;18.89;81.96
55315;BME280;41619;42.816;23.226;2023-06-22T21:07:38;95889.34;;;18.79;81.79
55315;BME280;41619;42.816;23.226;2023-06-22T21:10:04;95894.53;;;18.73;81.83
55315;BME280;41619;42.816;23.226;2023-06-22T21:12:29;95887.06;;;18.66;81.86
55315;BME280;41619;42.816;23.226;2023-06-22T21:14:55;95895.78;;;18.61;81.93
55315;BME280;41619;42.816;23.226;2023-06-22T21:17:21;95901.31;;;18.58;81.78
55315;BME280;41619;42.816;23.226;2023-06-22T21:19:47;95901.75;;;18.53;81.70
55315;BME280;41619;42.816;23.226;2023-06-22T21:22:12;95890.69;;;18.49;81.67
55315;BME280;41619;42.816;23.226;2023-06-22T21:24:38;95893.91;;;18.44;81.94
55315;BME280;41619;42.816;23.226;2023-06-22T21:27:04;95887.19;;;18.41;81.72
55315;BME280;41619;42.816;23.226;2023-06-22T21:29:29;95888.78;;;18.39;81.85
55315;BME280;41619;42.816;23.226;2023-06-22T21:31:55;95887.19;;;18.38;82.06
55315;BME280;41619;42.816;23.226;2023-06-22T21:34:21;95881.28;;;18.36;82.05
55315;BME280;41619;42.816;23.226;2023-06-22T21:36:47;95880.09;;;18.33;82.06
55315;BME280;41619;42.816;23.226;2023-06-22T21:39:13;95880.91;;;18.30;81.96
55315;BME280;41619;42.816;23.226;2023-06-22T21:41:38;95875.78;;;18.29;81.84
55315;BME280;41619;42.816;23.226;2023-06-22T21:44:04;95875.81;;;18.25;81.99
55315;BME280;41619;42.816;23.226;2023-06-22T21:46:29;95877.78;;;18.21;81.94
55315;BME280;41619;42.816;23.226;2023-06-22T21:48:54;95869.50;;;18.17;81.96
55315;BME280;41619;42.816;23.226;2023-06-22T21:51:20;95875.06;;;18.14;81.94
55315;BME280;41619;42.816;23.226;2023-06-22T21:53:45;95872.72;;;18.09;81.90
55315;BME280;41619;42.816;23.226;2023-06-22T21:56:11;95871.19;;;18.04;81.88
55315;BME280;41619;42.816;23.226;2023-06-22T21:58:36;95882.25;;;18.04;82.05
55315;BME280;41619;42.816;23.226;2023-06-22T22:01:02;95876.31;;;18.02;81.88
55315;BME280;41619;42.816;23.226;2023-06-22T22:03:28;95879.09;;;17.99;81.98
55315;BME280;41619;42.816;23.226;2023-06-22T22:05:54;95875.53;;;17.98;82.36
55315;BME280;41619;42.816;23.226;2023-06-22T22:08:20;95872.00;;;17.94;82.27
55315;BME280;41619;42.816;23.226;2023-06-22T22:10:45;95885.47;;;17.92;82.36
55315;BME280;41619;42.816;23.226;2023-06-22T22:13:11;95883.09;;;17.91;82.71
55315;BME280;41619;42.816;23.226;2023-06-22T22:15:37;95883.91;;;17.88;82.62
55315;BME280;41619;42.816;23.226;2023-06-22T22:18:06;95887.88;;;17.87;82.74
55315;BME280;41619;42.816;23.226;2023-06-22T22:20:34;95883.53;;;17.85;82.57
55315;BME280;41619;42.816;23.226;2023-06-22T22:22:59;95883.13;;;17.83;82.55
55315;BME280;41619;42.816;23.226;2023-06-22T22:25:25;95883.13;;;17.80;82.77
55315;BME280;41619;42.816;23.226;2023-06-22T22:27:52;95885.13;;;17.76;82.75
55315;BME280;41619;42.816;23.226;2023-06-22T22:30:18;95875.25;;;17.75;82.77
55315;BME280;41619;42.816;23.226;2023-06-22T22:32:43;95876.47;;;17.70;82.79
55315;BME280;41619;42.816;23.226;2023-06-22T22:35:10;95867.78;;;17.68;82.61
55315;BME280;41619;42.816;23.226;2023-06-22T22:37:36;95872.06;;;17.66;82.77
55315;BME280;41619;42.816;23.226;2023-06-22T22:40:01;95867.72;;;17.65;82.83
55315;BME280;41619;42.816;23.226;2023-06-22T22:42:30;95870.13;;;17.63;82.73
55315;BME280;41619;42.816;23.226;2023-06-22T22:44:55;95866.97;;;17.61;82.64
55315;BME280;41619;42.816;23.226;2023-06-22T22:47:20;95862.22;;;17.58;82.78
55315;BME280;41619;42.816;23.226;2023-06-22T22:49:46;95858.69;;;17.57;82.76
55315;BME280;41619;42.816;23.226;2023-06-22T22:52:11;95863.03;;;17.54;82.95
55315;BME280;41619;42.816;23.226;2023-06-22T22:54:37;95857.13;;;17.52;82.87
55315;BME280;41619;42.816;23.226;2023-06-22T22:57:07;95861.47;;;17.50;82.94
55315;BME280;41619;42.816;23.226;2023-06-22T22:59:33;95852.38;;;17.46;82.88
55315;BME280;41619;42.816;23.226;2023-06-22T23:01:58;95848.44;;;17.43;83.02
55315;BME280;41619;42.816;23.226;2023-06-22T23:04:23;95850.81;;;17.41;82.89
55315;BME280;41619;42.816;23.226;2023-06-22T23:06:49;95856.34;;;17.41;82.92
55315;BME280;41619;42.816;23.226;2023-06-22T23:09:14;95860.69;;;17.42;83.05
55315;BME280;41619;42.816;23.226;2023-06-22T23:11:40;95852.81;;;17.37;82.95
55315;BME280;41619;42.816;23.226;2023-06-22T23:14:05;95843.34;;;17.35;83.06
55315;BME280;41619;42.816;23.226;2023-06-22T23:16:31;95845.31;;;17.34;83.23
55315;BME280;41619;42.816;23.226;2023-06-22T23:18:56;95852.44;;;17.32;83.22
55315;BME280;41619;42.816;23.226;2023-06-22T23:21:22;95851.22;;;17.29;83.24
55315;BME280;41619;42.816;23.226;2023-06-22T23:23:47;95855.19;;;17.24;83.12
55315;BME280;41619;42.816;23.226;2023-06-22T23:26:13;95852.06;;;17.22;83.07
55315;BME280;41619;42.816;23.226;2023-06-22T23:28:40;95850.47;;;17.21;83.06
55315;BME280;41619;42.816;23.226;2023-06-22T23:31:05;95843.38;;;17.20;83.15
55315;BME280;41619;42.816;23.226;2023-06-22T23:33:31;95850.50;;;17.18;83.16
55315;BME280;41619;42.816;23.226;2023-06-22T23:35:56;95851.28;;;17.15;83.30
55315;BME280;41619;42.816;23.226;2023-06-22T23:38:25;95849.72;;;17.14;83.35
55315;BME280;41619;42.816;23.226;2023-06-22T23:40:50;95853.25;;;17.14;83.36
55315;BME280;41619;42.816;23.226;2023-06-22T23:43:16;95856.81;;;17.11;83.44
55315;BME280;41619;42.816;23.226;2023-06-22T23:45:44;95845.75;;;17.08;83.37
55315;BME280;41619;42.816;23.226;2023-06-22T23:48:10;95851.28;;;17.04;83.40
55315;BME280;41619;42.816;23.226;2023-06-22T23:50:36;95845.38;;;17.02;83.41
55315;BME280;41619;42.816;23.226;2023-06-22T23:53:05;95850.91;;;16.99;83.46
55315;BME280;41619;42.816;23.226;2023-06-22T23:55:30;95843.41;;;16.95;83.55
55315;BME280;41619;42.816;23.226;2023-06-22T23:57:56;95850.91;;;16.95;83.49
